Terminal Aerodrome Forecast
Issued by NWS Rapid City, SD

Home | Current Version | Previous Version | Text Only | Print | Product List | Glossary Off
Versions: 1 2 3 4 5 6 7 8 9 10 11 12 13 14 15 16 17 18 19

778
FTUS43 KUNR 200726 AAA
TAFRAP
TAF AMD
KRAP 200726Z 2007/2106 34006KT P6SM SCT040 OVC060
      TEMPO 2009/2011 -SHRASN BKN040
     FM202000 36011KT 1SM -SN OVC011=

USA.gov is the U.S. government's official web portal to all federal, state and local government web resources and services.